River Hills, Wisconsin
Current Conditions -  °F | °C
As of 7:45 PM on Saturday 25 Oct 2014 (Local Time) from KMWC Reporting Station
Clear Clear  
Wind Chill: 57°   Ceiling: Unl
Heat Index: 57°   Visibility: 10mi
Dew Point: 25°   Wind: 10mph
Humidity: 29%   Direction: 290°WNW
Pressure: 29.93"   Gusts: NA
Location:  43.1576°N, 87.9144°W
Report Text: KMWC 260045Z AUTO 29009KT 10SM SKC 14/M04 A2993
Loading
Personal Weather Stations






























Interactive Weather Map
Tropical Storm Tracking
New forecast layout! Learn more

10-Day Weather Forecast

Advertisements
Track Severe Weather on mobile